Time;durP1;ratioP1;P1;durP2;ratioP2;P2;SDS_P1;SDS_P2;PMS_P1;PMS_P2;Temp;Humidity;BMP_temperature;BMP_pressure;BME280_temperature;BME280_humidity;BME280_pressure;Samples;Min_cycle;Max_cycle;Signal;HPM_P1;HPM_P2
2023/02/27 00:00:24;;;;;;;3.80;1.67;;;;;;;;;;10411937;28;20061;-78
2023/02/27 00:05:42;;;;;;;0.70;0.43;;;;;;;;;;10442322;28;20077;-77
2023/02/27 00:10:49;;;;;;;2.90;1.03;;;;;;;;;;10439793;28;20057;-76
2023/02/27 00:15:56;;;;;;;5.93;1.80;;;;;;;;;;10431483;28;20037;-78
2023/02/27 00:21:12;;;;;;;3.93;1.90;;;;;;;;;;10437437;28;20087;-77
2023/02/27 00:26:22;;;;;;;2.33;1.00;;;;;;;;;;10437191;28;20072;-76
2023/02/27 00:31:28;;;;;;;2.17;1.23;;;;;;;;;;10440079;28;20447;-76
2023/02/27 00:36:36;;;;;;;2.77;1.60;;;;;;;;;;10440715;28;20045;-77
2023/02/27 00:41:43;;;;;;;3.90;1.83;;;;;;;;;;10414096;28;20056;-78
2023/02/27 00:46:53;;;;;;;8.27;2.20;;;;;;;;;;10441127;28;20057;-77
2023/02/27 00:52:00;;;;;;;2.57;1.30;;;;;;;;;;10418474;28;20044;-78
2023/02/27 00:57:11;;;;;;;2.27;1.00;;;;;;;;;;10440676;28;20041;-77
2023/02/27 01:02:23;;;;;;;4.13;1.80;;;;;;;;;;10420106;28;20439;-77
2023/02/27 01:07:33;;;;;;;2.90;1.20;;;;;;;;;;10414987;28;20088;-76
2023/02/27 01:12:43;;;;;;;2.13;1.50;;;;;;;;;;10421701;28;20044;-76
2023/02/27 01:17:48;;;;;;;1.33;0.97;;;;;;;;;;10431536;28;20049;-75
2023/02/27 01:22:56;;;;;;;2.03;1.17;;;;;;;;;;10416858;28;20041;-77
2023/02/27 01:28:09;;;;;;;2.37;1.57;;;;;;;;;;10438226;28;20041;-78
2023/02/27 01:33:14;;;;;;;4.20;1.42;;;;;;;;;;10419206;28;20061;-77
2023/02/27 01:38:31;;;;;;;2.43;1.27;;;;;;;;;;10441056;28;20060;-76
2023/02/27 01:43:50;;;;;;;4.23;1.97;;;;;;;;;;10436668;28;20042;-77
2023/02/27 01:49:05;;;;;;;0.57;0.40;;;;;;;;;;10436244;28;20554;-75
2023/02/27 01:54:10;;;;;;;4.13;2.27;;;;;;;;;;10442377;28;20573;-76
2023/02/27 01:59:20;;;;;;;3.33;1.57;;;;;;;;;;10420240;28;20045;-76
2023/02/27 02:04:35;;;;;;;1.70;1.07;;;;;;;;;;10444229;28;20052;-77
2023/02/27 02:09:44;;;;;;;1.40;0.80;;;;;;;;;;10406323;28;20514;-77
2023/02/27 02:14:59;;;;;;;3.40;1.83;;;;;;;;;;10423225;28;20384;-78
2023/02/27 02:20:29;;;;;;;3.50;1.63;;;;;;;;;;10455777;28;20495;-77
2023/02/27 02:25:56;;;;;;;4.07;1.93;;;;;;;;;;10416808;28;20114;-79
2023/02/27 02:31:19;;;;;;;1.90;1.17;;;;;;;;;;10447211;28;20407;-76
2023/02/27 02:36:52;;;;;;;4.00;1.17;;;;;;;;;;10440312;28;20055;-76
2023/02/27 02:42:07;;;;;;;3.13;0.50;;;;;;;;;;10427713;28;20065;-76
2023/02/27 02:47:18;;;;;;;5.47;2.17;;;;;;;;;;10440792;28;20047;-77
2023/02/27 02:52:37;;;;;;;3.33;1.83;;;;;;;;;;10407426;28;20355;-76
2023/02/27 02:57:54;;;;;;;2.50;1.57;;;;;;;;;;10435999;28;20154;-77
2023/02/27 03:03:02;;;;;;;1.30;0.30;;;;;;;;;;10442133;28;20043;-77
2023/02/27 03:08:18;;;;;;;1.87;0.90;;;;;;;;;;10430260;28;20056;-78
2023/02/27 03:13:39;;;;;;;1.07;0.83;;;;;;;;;;10426872;28;20128;-77
2023/02/27 03:18:58;;;;;;;0.87;0.70;;;;;;;;;;10443579;28;20032;-78
2023/02/27 03:24:09;;;;;;;;;;;;;;;;;;10403738;28;20450;-79
2023/02/27 03:29:22;;;;;;;0.10;0.10;;;;;;;;;;10423576;28;19927;-78
2023/02/27 03:39:52;;;;;;;6.37;1.77;;;;;;;;;;10430112;28;20128;-79
2023/02/27 03:45:06;;;;;;;0.97;0.90;;;;;;;;;;10435761;28;20130;-77
2023/02/27 03:50:10;;;;;;;;;;;;;;;;;;10421283;28;20061;-77
2023/02/27 03:55:20;;;;;;;1.90;0.87;;;;;;;;;;10440864;28;20448;-77
2023/02/27 04:00:31;;;;;;;2.40;1.67;;;;;;;;;;10441027;28;20042;-76
2023/02/27 04:11:15;;;;;;;1.97;1.10;;;;;;;;;;10443440;28;20103;-77
2023/02/27 04:16:45;;;;;;;2.13;1.33;;;;;;;;;;10439785;28;20049;-77
2023/02/27 04:22:01;;;;;;;10.43;1.80;;;;;;;;;;10441599;28;20033;-76
2023/02/27 04:27:28;;;;;;;1.60;0.60;;;;;;;;;;10432114;28;20045;-79
2023/02/27 04:32:34;;;;;;;2.38;0.47;;;;;;;;;;10443821;28;20045;-78
2023/02/27 04:37:46;;;;;;;5.57;2.47;;;;;;;;;;10424010;28;20049;-77
2023/02/27 04:43:09;;;;;;;2.60;0.57;;;;;;;;;;10432536;28;20572;-78
2023/02/27 04:48:23;;;;;;;1.67;1.03;;;;;;;;;;10422085;28;20059;-76
2023/02/27 04:53:34;;;;;;;1.70;0.80;;;;;;;;;;10419466;28;20033;-77
2023/02/27 04:58:44;;;;;;;2.63;1.10;;;;;;;;;;10446427;28;20060;-78
2023/02/27 05:09:57;;;;;;;6.13;1.80;;;;;;;;;;10434163;28;20081;-77
2023/02/27 05:15:14;;;;;;;4.47;2.00;;;;;;;;;;10420178;28;20041;-78
2023/02/27 05:20:28;;;;;;;4.00;1.30;;;;;;;;;;10436645;28;20164;-78
2023/02/27 05:25:49;;;;;;;0.87;0.53;;;;;;;;;;10438608;28;20044;-78
2023/02/27 05:30:56;;;;;;;1.30;0.87;;;;;;;;;;10422582;28;20068;-78
2023/02/27 05:36:09;;;;;;;0.40;0.20;;;;;;;;;;10448502;28;20061;-77
2023/02/27 05:41:21;;;;;;;1.47;0.70;;;;;;;;;;10441406;28;20057;-77
2023/02/27 05:46:39;;;;;;;5.65;1.83;;;;;;;;;;10449088;28;20051;-77
2023/02/27 05:51:55;;;;;;;5.77;1.50;;;;;;;;;;10446200;28;20049;-76
2023/02/27 05:57:07;;;;;;;4.33;1.07;;;;;;;;;;10421175;28;20143;-78
2023/02/27 06:02:34;;;;;;;1.05;0.65;;;;;;;;;;10435179;28;20029;-77
2023/02/27 06:07:43;;;;;;;8.00;2.07;;;;;;;;;;10444933;28;20048;-74
2023/02/27 06:12:57;;;;;;;5.00;2.30;;;;;;;;;;10456031;28;20076;-76
2023/02/27 06:18:11;;;;;;;7.47;3.00;;;;;;;;;;10418524;28;20064;-77
2023/02/27 06:23:26;;;;;;;3.33;1.90;;;;;;;;;;10436711;28;20041;-76
2023/02/27 06:28:48;;;;;;;1.40;0.73;;;;;;;;;;10437900;28;20061;-77
2023/02/27 06:34:04;;;;;;;4.67;1.60;;;;;;;;;;10437539;28;20144;-77
2023/02/27 06:39:10;;;;;;;1.93;0.97;;;;;;;;;;10436973;28;20041;-77
2023/02/27 06:44:18;;;;;;;2.43;1.47;;;;;;;;;;10436137;28;20048;-77
2023/02/27 06:49:33;;;;;;;3.03;1.10;;;;;;;;;;10418288;28;20586;-77
2023/02/27 06:54:37;;;;;;;2.90;1.70;;;;;;;;;;10417558;28;20041;-77
2023/02/27 06:59:43;;;;;;;8.07;1.97;;;;;;;;;;10408794;28;20435;-77
2023/02/27 07:04:54;;;;;;;1.10;0.67;;;;;;;;;;10430333;28;20056;-77
2023/02/27 07:09:59;;;;;;;2.43;1.40;;;;;;;;;;10437104;28;20044;-75
2023/02/27 07:15:16;;;;;;;2.80;2.00;;;;;;;;;;10426065;28;20057;-79
2023/02/27 07:20:25;;;;;;;1.23;0.90;;;;;;;;;;10419281;28;20048;-77
2023/02/27 07:25:35;;;;;;;7.77;1.30;;;;;;;;;;10450511;28;20540;-76
2023/02/27 07:30:42;;;;;;;4.47;1.87;;;;;;;;;;10438832;28;20474;-77
2023/02/27 07:36:02;;;;;;;3.87;1.50;;;;;;;;;;10412287;28;20047;-77
2023/02/27 07:41:08;;;;;;;5.57;1.90;;;;;;;;;;10426874;28;20036;-77
2023/02/27 07:46:35;;;;;;;3.03;1.27;;;;;;;;;;10417412;28;20052;-78
2023/02/27 07:52:02;;;;;;;4.67;1.20;;;;;;;;;;10398756;28;20177;-78
2023/02/27 07:57:17;;;;;;;1.90;1.20;;;;;;;;;;10446342;28;20055;-77
2023/02/27 08:02:37;;;;;;;1.77;0.97;;;;;;;;;;10436829;28;20485;-77
2023/02/27 08:07:46;;;;;;;1.40;1.30;;;;;;;;;;10421884;28;20053;-77
2023/02/27 08:12:53;;;;;;;1.70;1.10;;;;;;;;;;10435933;28;20048;-77
2023/02/27 08:23:20;;;;;;;1.80;1.40;;;;;;;;;;10453941;28;20049;-78
2023/02/27 08:28:31;;;;;;;3.67;1.67;;;;;;;;;;10417059;28;20033;-78
2023/02/27 08:33:44;;;;;;;2.93;1.57;;;;;;;;;;10440914;28;20068;-76
2023/02/27 08:38:51;;;;;;;1.43;1.03;;;;;;;;;;10419401;28;20144;-76
2023/02/27 08:43:56;;;;;;;1.73;1.10;;;;;;;;;;10426275;28;20048;-77
2023/02/27 08:49:15;;;;;;;2.77;1.73;;;;;;;;;;10423984;28;20567;-76
2023/02/27 08:54:38;;;;;;;7.83;2.77;;;;;;;;;;10447215;28;20045;-74
2023/02/27 09:00:07;;;;;;;4.60;1.87;;;;;;;;;;10462886;28;20055;-77
2023/02/27 09:05:27;;;;;;;2.63;1.40;;;;;;;;;;10450681;28;20412;-76
2023/02/27 09:10:49;;;;;;;8.03;2.67;;;;;;;;;;10426738;28;20154;-77
2023/02/27 09:16:01;;;;;;;3.57;1.83;;;;;;;;;;10443592;28;20395;-77
2023/02/27 09:21:13;;;;;;;3.70;1.70;;;;;;;;;;10458135;28;20048;-78
2023/02/27 09:26:23;;;;;;;5.00;2.10;;;;;;;;;;10443098;28;20132;-78
2023/02/27 09:31:57;;;;;;;5.87;1.90;;;;;;;;;;10451610;28;20045;-77
2023/02/27 09:37:04;;;;;;;4.20;1.83;;;;;;;;;;10438620;28;20423;-77
2023/02/27 09:42:10;;;;;;;5.47;2.20;;;;;;;;;;10407880;28;20497;-77
2023/02/27 09:47:25;;;;;;;1.50;0.83;;;;;;;;;;10418382;28;20041;-77
2023/02/27 09:52:29;;;;;;;4.27;1.23;;;;;;;;;;10420630;28;20494;-76
2023/02/27 09:57:40;;;;;;;4.27;1.77;;;;;;;;;;10475244;28;20041;-76
2023/02/27 10:02:59;;;;;;;12.77;3.53;;;;;;;;;;10462419;28;20045;-76
2023/02/27 10:08:07;;;;;;;5.47;2.40;;;;;;;;;;10461922;28;20055;-78
2023/02/27 10:13:31;;;;;;;2.95;1.50;;;;;;;;;;10476569;28;20060;-77
2023/02/27 10:18:42;;;;;;;4.53;1.80;;;;;;;;;;10461004;28;20582;-77
2023/02/27 10:23:52;;;;;;;2.43;1.30;;;;;;;;;;10472294;28;20067;-77
2023/02/27 10:28:57;;;;;;;3.43;1.53;;;;;;;;;;10479586;28;20626;-77
2023/02/27 10:34:05;;;;;;;3.80;1.87;;;;;;;;;;10481393;28;20064;-77
2023/02/27 10:39:24;;;;;;;6.50;1.90;;;;;;;;;;10459591;28;20397;-77
2023/02/27 10:44:33;;;;;;;2.88;1.38;;;;;;;;;;10477609;28;20442;-77
2023/02/27 10:49:41;;;;;;;3.25;1.25;;;;;;;;;;10456407;28;20093;-77
2023/02/27 10:54:53;;;;;;;6.43;1.23;;;;;;;;;;10459529;28;20047;-77
2023/02/27 10:59:58;;;;;;;1.70;1.02;;;;;;;;;;10461653;28;20094;-77
2023/02/27 11:05:08;;;;;;;9.35;0.98;;;;;;;;;;10480167;28;20032;-77
2023/02/27 11:10:18;;;;;;;4.53;1.63;;;;;;;;;;10476000;28;20137;-76
2023/02/27 11:15:38;;;;;;;2.33;1.38;;;;;;;;;;10471113;28;20379;-77
2023/02/27 11:20:49;;;;;;;4.90;1.63;;;;;;;;;;10464398;28;20043;-76
2023/02/27 11:26:10;;;;;;;9.27;1.05;;;;;;;;;;10469842;28;20048;-76
2023/02/27 11:31:18;;;;;;;2.03;1.17;;;;;;;;;;10476928;28;20110;-75
2023/02/27 11:36:41;;;;;;;7.43;2.95;;;;;;;;;;10487803;28;20028;-77
2023/02/27 11:41:50;;;;;;;2.13;1.13;;;;;;;;;;10479182;28;20141;-78
2023/02/27 11:47:10;;;;;;;1.58;1.48;;;;;;;;;;10475640;28;20048;-77
2023/02/27 11:52:24;;;;;;;4.10;1.63;;;;;;;;;;10449982;28;20289;-77
2023/02/27 11:57:37;;;;;;;2.05;1.02;;;;;;;;;;10474299;28;20052;-77
2023/02/27 12:02:59;;;;;;;1.70;0.77;;;;;;;;;;10461144;28;20036;-76
2023/02/27 12:08:14;;;;;;;1.45;0.93;;;;;;;;;;10476728;28;20147;-77
2023/02/27 12:13:29;;;;;;;2.35;1.35;;;;;;;;;;10473486;28;20410;-76
2023/02/27 12:18:43;;;;;;;1.73;0.90;;;;;;;;;;10477631;28;20494;-77
2023/02/27 12:24:04;;;;;;;1.85;1.10;;;;;;;;;;10456068;28;20415;-77
2023/02/27 12:29:20;;;;;;;4.78;2.10;;;;;;;;;;10467107;28;20037;-77
2023/02/27 12:34:32;;;;;;;2.83;1.25;;;;;;;;;;10467351;28;20040;-78
2023/02/27 12:39:46;;;;;;;0.63;0.50;;;;;;;;;;10478463;28;20414;-77
2023/02/27 12:44:56;;;;;;;;;;;;;;;;;;10489348;28;20060;-77
2023/02/27 12:50:05;;;;;;;1.67;0.93;;;;;;;;;;10482676;28;19924;-77
2023/02/27 12:55:16;;;;;;;4.07;1.80;;;;;;;;;;10484771;28;20124;-77
2023/02/27 13:00:34;;;;;;;2.40;1.30;;;;;;;;;;10436420;28;20497;-77
2023/02/27 13:05:43;;;;;;;3.55;1.58;;;;;;;;;;10439859;28;20095;-77
2023/02/27 13:10:53;;;;;;;3.22;1.20;;;;;;;;;;10439412;28;20490;-76
2023/02/27 13:16:03;;;;;;;5.80;2.20;;;;;;;;;;10440200;28;20030;-76
2023/02/27 13:21:11;;;;;;;2.88;1.52;;;;;;;;;;10449667;28;20056;-76
2023/02/27 13:26:22;;;;;;;1.50;1.27;;;;;;;;;;10439951;28;20037;-77
2023/02/27 13:31:35;;;;;;;2.42;1.08;;;;;;;;;;10442375;28;20053;-75
2023/02/27 13:36:42;;;;;;;2.38;1.17;;;;;;;;;;10476001;28;20192;-77
2023/02/27 13:41:48;;;;;;;5.22;1.58;;;;;;;;;;10468645;28;20041;-76
2023/02/27 13:46:53;;;;;;;2.47;1.63;;;;;;;;;;10454434;28;20076;-78
2023/02/27 13:52:06;;;;;;;2.33;1.48;;;;;;;;;;10446212;28;20171;-77
2023/02/27 13:57:32;;;;;;;1.88;1.30;;;;;;;;;;10459133;28;20112;-77
2023/02/27 14:02:45;;;;;;;4.45;1.70;;;;;;;;;;10482002;28;20171;-77
2023/02/27 14:08:08;;;;;;;1.35;0.98;;;;;;;;;;10479910;28;20044;-76
2023/02/27 14:13:26;;;;;;;3.10;1.27;;;;;;;;;;10485733;28;20056;-77
2023/02/27 14:18:50;;;;;;;1.33;0.88;;;;;;;;;;10482773;28;20033;-77
2023/02/27 14:24:05;;;;;;;2.22;1.25;;;;;;;;;;10456945;28;20247;-77
2023/02/27 14:29:20;;;;;;;2.13;1.20;;;;;;;;;;10463605;28;20040;-77
2023/02/27 14:34:44;;;;;;;1.83;1.20;;;;;;;;;;10498484;28;20498;-77
2023/02/27 14:39:50;;;;;;;2.70;1.45;;;;;;;;;;10464212;28;20131;-77
2023/02/27 14:44:56;;;;;;;1.75;1.30;;;;;;;;;;10467587;28;20037;-77
2023/02/27 14:50:04;;;;;;;3.85;2.28;;;;;;;;;;10480357;28;20544;-78
2023/02/27 14:55:26;;;;;;;4.50;2.17;;;;;;;;;;10479780;28;20663;-76
2023/02/27 15:00:35;;;;;;;4.47;2.17;;;;;;;;;;10427392;28;20566;-76
2023/02/27 15:05:40;;;;;;;4.10;1.80;;;;;;;;;;10421377;28;20033;-76
2023/02/27 15:10:46;;;;;;;2.37;1.70;;;;;;;;;;10437007;28;20063;-76
2023/02/27 15:16:16;;;;;;;2.63;1.57;;;;;;;;;;10445845;28;20068;-77
2023/02/27 15:21:28;;;;;;;2.37;1.33;;;;;;;;;;10437892;28;20072;-76
2023/02/27 15:26:39;;;;;;;1.63;1.20;;;;;;;;;;10424388;28;20417;-76
2023/02/27 15:31:46;;;;;;;10.80;1.57;;;;;;;;;;10431340;28;20079;-77
2023/02/27 15:37:00;;;;;;;5.23;1.57;;;;;;;;;;10434712;28;20037;-77
2023/02/27 15:47:39;;;;;;;5.10;2.07;;;;;;;;;;10432026;28;20036;-77
2023/02/27 15:52:50;;;;;;;1.47;0.80;;;;;;;;;;10434877;28;20127;-76
2023/02/27 15:58:05;;;;;;;4.87;1.87;;;;;;;;;;10461493;28;20064;-76
2023/02/27 16:03:20;;;;;;;8.80;2.53;;;;;;;;;;10455562;28;20579;-77
2023/02/27 16:08:26;;;;;;;4.23;1.83;;;;;;;;;;10472373;28;20045;-77
2023/02/27 16:13:38;;;;;;;2.60;1.43;;;;;;;;;;10447778;28;20040;-76
2023/02/27 16:18:52;;;;;;;16.40;2.40;;;;;;;;;;10468079;28;20040;-76
2023/02/27 16:24:22;;;;;;;4.43;1.87;;;;;;;;;;10489953;28;20103;-77
2023/02/27 16:29:34;;;;;;;1.77;1.30;;;;;;;;;;10457226;28;20049;-77
2023/02/27 16:34:38;;;;;;;3.00;1.13;;;;;;;;;;10450521;28;20048;-77
2023/02/27 16:40:01;;;;;;;5.20;1.40;;;;;;;;;;10490609;28;20123;-77
2023/02/27 16:45:09;;;;;;;2.00;1.30;;;;;;;;;;10449159;28;20805;-78
2023/02/27 16:50:21;;;;;;;3.90;2.27;;;;;;;;;;10479225;28;20648;-78
2023/02/27 16:55:26;;;;;;;3.00;2.10;;;;;;;;;;10474703;28;20411;-78
2023/02/27 17:00:32;;;;;;;3.00;1.70;;;;;;;;;;10439479;28;20123;-77
2023/02/27 17:05:39;;;;;;;4.33;2.10;;;;;;;;;;10474649;28;20068;-76
2023/02/27 17:10:48;;;;;;;5.13;2.10;;;;;;;;;;10433857;28;20106;-76
2023/02/27 17:15:58;;;;;;;2.17;1.10;;;;;;;;;;10444300;28;20064;-76
2023/02/27 17:21:03;;;;;;;0.93;0.67;;;;;;;;;;10467158;28;20060;-76
2023/02/27 17:26:16;;;;;;;8.50;2.40;;;;;;;;;;10481951;28;20501;-77
2023/02/27 17:31:24;;;;;;;2.93;1.43;;;;;;;;;;10477778;28;20060;-76
2023/02/27 17:36:28;;;;;;;2.47;1.30;;;;;;;;;;10478178;28;20529;-75
2023/02/27 17:41:37;;;;;;;1.73;1.37;;;;;;;;;;10481275;28;20172;-75
2023/02/27 17:46:46;;;;;;;3.27;1.70;;;;;;;;;;10478696;28;20485;-75
2023/02/27 17:51:59;;;;;;;6.83;2.00;;;;;;;;;;10485962;28;20106;-76
2023/02/27 17:57:08;;;;;;;1.50;1.13;;;;;;;;;;10493797;28;20091;-75
2023/02/27 18:02:22;;;;;;;2.83;1.40;;;;;;;;;;10488584;28;20052;-76
2023/02/27 18:07:33;;;;;;;8.37;2.50;;;;;;;;;;10471027;28;20170;-75
2023/02/27 18:12:41;;;;;;;4.40;1.83;;;;;;;;;;10473261;28;20116;-75
2023/02/27 18:17:50;;;;;;;3.50;0.73;;;;;;;;;;10492521;28;20069;-75
2023/02/27 18:23:01;;;;;;;3.30;1.60;;;;;;;;;;10492518;28;20498;-76
2023/02/27 18:28:04;;;;;;;5.97;1.83;;;;;;;;;;10485141;28;20041;-76
2023/02/27 18:33:12;;;;;;;5.65;2.15;;;;;;;;;;10472375;28;20048;-75
2023/02/27 18:38:20;;;;;;;5.30;1.93;;;;;;;;;;10477926;28;20040;-76
2023/02/27 18:43:25;;;;;;;5.60;2.17;;;;;;;;;;10481050;28;20043;-76
2023/02/27 18:48:34;;;;;;;5.53;2.77;;;;;;;;;;10479403;28;20064;-76
2023/02/27 18:53:51;;;;;;;1.23;0.97;;;;;;;;;;10486555;28;20037;-78
2023/02/27 18:59:05;;;;;;;3.73;1.40;;;;;;;;;;10470361;28;20450;-77
2023/02/27 19:10:17;;;;;;;1.10;0.80;;;;;;;;;;10476146;28;20371;-77
2023/02/27 19:15:29;;;;;;;5.60;2.17;;;;;;;;;;10496708;28;20266;-77
2023/02/27 19:20:35;;;;;;;5.90;1.83;;;;;;;;;;10491699;28;20036;-76
2023/02/27 19:25:41;;;;;;;2.57;1.60;;;;;;;;;;10473285;28;20048;-76
2023/02/27 19:30:57;;;;;;;3.03;1.37;;;;;;;;;;10479465;28;20183;-76
2023/02/27 19:36:09;;;;;;;2.57;1.03;;;;;;;;;;10466193;28;20049;-77
2023/02/27 19:41:16;;;;;;;1.23;1.03;;;;;;;;;;10476847;28;20050;-78
2023/02/27 19:46:32;;;;;;;2.73;1.27;;;;;;;;;;10456575;28;20043;-76
2023/02/27 19:51:37;;;;;;;4.97;2.10;;;;;;;;;;10477378;28;20067;-75
2023/02/27 19:56:42;;;;;;;4.10;1.77;;;;;;;;;;10457870;28;20116;-75
2023/02/27 20:01:59;;;;;;;2.07;1.13;;;;;;;;;;10481153;28;20051;-77
2023/02/27 20:07:12;;;;;;;4.87;2.13;;;;;;;;;;10452771;28;20041;-77
2023/02/27 20:12:24;;;;;;;2.23;1.30;;;;;;;;;;10469981;28;20570;-75
2023/02/27 20:17:31;;;;;;;4.03;1.50;;;;;;;;;;10475827;28;20033;-77
2023/02/27 20:22:37;;;;;;;0.37;0.37;;;;;;;;;;10475382;28;20282;-76
2023/02/27 20:27:40;;;;;;;1.53;1.13;;;;;;;;;;10475396;28;20036;-76
2023/02/27 20:33:09;;;;;;;1.33;1.07;;;;;;;;;;10452127;28;20056;-76
2023/02/27 20:38:18;;;;;;;0.73;0.50;;;;;;;;;;10472817;28;20569;-77
2023/02/27 20:43:23;;;;;;;1.30;0.93;;;;;;;;;;10476244;28;20108;-77
2023/02/27 20:48:29;;;;;;;1.85;1.27;;;;;;;;;;10479865;28;20135;-77
2023/02/27 20:53:36;;;;;;;1.07;0.90;;;;;;;;;;10462437;28;20036;-76
2023/02/27 20:58:40;;;;;;;1.07;0.73;;;;;;;;;;10487412;28;20045;-80
2023/02/27 21:03:49;;;;;;;1.93;1.07;;;;;;;;;;10481062;28;20060;-76
2023/02/27 21:08:59;;;;;;;2.00;1.60;;;;;;;;;;10496390;28;20098;-76
2023/02/27 21:14:04;;;;;;;1.27;0.50;;;;;;;;;;10483621;28;20041;-75
2023/02/27 21:19:08;;;;;;;3.20;0.90;;;;;;;;;;10462936;28;20053;-77
2023/02/27 21:24:17;;;;;;;0.20;0.20;;;;;;;;;;10459900;28;20051;-75
2023/02/27 21:29:24;;;;;;;1.30;0.90;;;;;;;;;;10475486;28;20044;-77
2023/02/27 21:34:30;;;;;;;1.23;0.70;;;;;;;;;;10478220;28;20478;-78
2023/02/27 21:39:36;;;;;;;1.63;1.30;;;;;;;;;;10468196;28;20090;-75
2023/02/27 21:44:45;;;;;;;1.83;1.00;;;;;;;;;;10482812;28;20076;-78
2023/02/27 21:49:51;;;;;;;3.23;0.90;;;;;;;;;;10480050;28;20127;-76
2023/02/27 21:55:08;;;;;;;1.13;0.90;;;;;;;;;;10461822;28;20048;-77
2023/02/27 22:00:28;;;;;;;5.23;2.23;;;;;;;;;;10461601;28;20044;-78
2023/02/27 22:05:34;;;;;;;2.20;1.23;;;;;;;;;;10462053;28;20079;-77
2023/02/27 22:10:46;;;;;;;3.90;1.73;;;;;;;;;;10483508;28;20447;-77
2023/02/27 22:15:51;;;;;;;1.13;0.67;;;;;;;;;;10469312;28;20039;-77
2023/02/27 22:20:58;;;;;;;0.60;0.43;;;;;;;;;;10479379;28;20127;-77
2023/02/27 22:26:11;;;;;;;1.27;0.87;;;;;;;;;;10482713;28;20049;-77
2023/02/27 22:36:41;;;;;;;0.87;0.73;;;;;;;;;;10464482;28;20045;-74
2023/02/27 22:41:58;;;;;;;2.60;1.90;;;;;;;;;;10487283;28;20032;-77
2023/02/27 22:47:10;;;;;;;6.50;1.20;;;;;;;;;;10492945;28;20105;-76
2023/02/27 22:52:28;;;;;;;3.87;1.30;;;;;;;;;;10494556;28;20051;-77
2023/02/27 22:57:35;;;;;;;1.30;0.97;;;;;;;;;;10491691;28;20036;-78
2023/02/27 23:02:42;;;;;;;2.03;0.93;;;;;;;;;;10485792;28;20060;-77
2023/02/27 23:07:46;;;;;;;2.10;1.40;;;;;;;;;;10481281;28;20408;-77
2023/02/27 23:12:51;;;;;;;0.80;0.60;;;;;;;;;;10437904;28;20028;-76
2023/02/27 23:17:56;;;;;;;3.67;1.60;;;;;;;;;;10475914;28;20126;-75
2023/02/27 23:23:05;;;;;;;2.47;1.23;;;;;;;;;;10457710;28;20132;-77
2023/02/27 23:28:08;;;;;;;;;;;;;;;;;;10471445;28;20063;-76
2023/02/27 23:33:15;;;;;;;3.07;0.80;;;;;;;;;;10474011;28;19931;-77
2023/02/27 23:38:21;;;;;;;0.53;0.47;;;;;;;;;;10462045;28;20123;-77
2023/02/27 23:43:27;;;;;;;1.87;0.93;;;;;;;;;;10432190;28;20068;-76
2023/02/27 23:48:33;;;;;;;3.53;0.40;;;;;;;;;;10470631;28;20448;-76
2023/02/27 23:53:38;;;;;;;1.77;0.60;;;;;;;;;;10451407;28;20056;-75
2023/02/27 23:58:44;;;;;;;3.00;1.17;;;;;;;;;;10475640;28;20119;-75
